sensor_id;sensor_type;location;lat;lon;timestamp;temperature;humidity
46900;DHT22;32647;49.382;7.078;2024-03-02T00:02:45;6.20;99.90
46900;DHT22;32647;49.382;7.078;2024-03-02T00:05:31;6.10;99.90
46900;DHT22;32647;49.382;7.078;2024-03-02T00:08:23;6.10;99.90
46900;DHT22;32647;49.382;7.078;2024-03-02T00:11:12;6.10;99.90
46900;DHT22;32647;49.382;7.078;2024-03-02T00:14:00;6.20;99.90
46900;DHT22;32647;49.382;7.078;2024-03-02T00:16:46;6.10;99.90
46900;DHT22;32647;49.382;7.078;2024-03-02T00:19:32;6.10;99.90
46900;DHT22;32647;49.382;7.078;2024-03-02T00:22:18;6.10;99.90
46900;DHT22;32647;49.382;7.078;2024-03-02T00:25:04;6.10;99.90
46900;DHT22;32647;49.382;7.078;2024-03-02T00:27:50;6.10;99.90
46900;DHT22;32647;49.382;7.078;2024-03-02T00:33:23;6.00;99.90
46900;DHT22;32647;49.382;7.078;2024-03-02T00:36:24;6.00;99.90
46900;DHT22;32647;49.382;7.078;2024-03-02T00:39:12;5.90;99.90
46900;DHT22;32647;49.382;7.078;2024-03-02T00:42:00;5.90;99.90
46900;DHT22;32647;49.382;7.078;2024-03-02T00:44:46;5.90;99.90
46900;DHT22;32647;49.382;7.078;2024-03-02T00:47:40;6.00;99.90
46900;DHT22;32647;49.382;7.078;2024-03-02T00:50:26;6.00;99.90
46900;DHT22;32647;49.382;7.078;2024-03-02T00:53:12;6.00;99.90
46900;DHT22;32647;49.382;7.078;2024-03-02T00:55:59;6.00;99.90
46900;DHT22;32647;49.382;7.078;2024-03-02T00:58:48;5.90;99.90
46900;DHT22;32647;49.382;7.078;2024-03-02T01:01:34;5.90;99.90
46900;DHT22;32647;49.382;7.078;2024-03-02T01:04:20;5.90;99.90
46900;DHT22;32647;49.382;7.078;2024-03-02T01:07:06;5.80;99.90
46900;DHT22;32647;49.382;7.078;2024-03-02T01:09:52;5.80;99.90
46900;DHT22;32647;49.382;7.078;2024-03-02T01:12:38;5.80;99.90
46900;DHT22;32647;49.382;7.078;2024-03-02T01:15:25;5.90;99.90
46900;DHT22;32647;49.382;7.078;2024-03-02T01:18:11;5.90;99.90
46900;DHT22;32647;49.382;7.078;2024-03-02T01:20:57;5.90;99.90
46900;DHT22;32647;49.382;7.078;2024-03-02T01:23:43;5.90;99.90
46900;DHT22;32647;49.382;7.078;2024-03-02T01:26:29;5.90;99.90
46900;DHT22;32647;49.382;7.078;2024-03-02T01:29:15;5.90;99.90
46900;DHT22;32647;49.382;7.078;2024-03-02T01:32:01;5.90;99.90
46900;DHT22;32647;49.382;7.078;2024-03-02T01:34:47;5.90;99.90
46900;DHT22;32647;49.382;7.078;2024-03-02T01:37:33;5.80;99.90
46900;DHT22;32647;49.382;7.078;2024-03-02T01:40:20;5.80;99.90
46900;DHT22;32647;49.382;7.078;2024-03-02T01:43:06;5.90;99.90
46900;DHT22;32647;49.382;7.078;2024-03-02T01:45:53;5.90;99.90
46900;DHT22;32647;49.382;7.078;2024-03-02T01:48:39;5.90;99.90
46900;DHT22;32647;49.382;7.078;2024-03-02T01:51:25;5.70;99.90
46900;DHT22;32647;49.382;7.078;2024-03-02T01:54:11;5.60;99.90
46900;DHT22;32647;49.382;7.078;2024-03-02T01:56:57;5.60;99.90
46900;DHT22;32647;49.382;7.078;2024-03-02T01:59:43;5.60;99.90
46900;DHT22;32647;49.382;7.078;2024-03-02T02:02:30;5.60;99.90
46900;DHT22;32647;49.382;7.078;2024-03-02T02:05:16;5.80;99.90
46900;DHT22;32647;49.382;7.078;2024-03-02T02:08:03;5.90;99.90
46900;DHT22;32647;49.382;7.078;2024-03-02T02:10:49;6.10;99.90
46900;DHT22;32647;49.382;7.078;2024-03-02T02:13:35;6.10;99.90
46900;DHT22;32647;49.382;7.078;2024-03-02T02:16:21;6.20;99.90
46900;DHT22;32647;49.382;7.078;2024-03-02T02:19:07;6.20;99.90
46900;DHT22;32647;49.382;7.078;2024-03-02T02:21:56;6.30;94.50
46900;DHT22;32647;49.382;7.078;2024-03-02T02:24:42;6.30;78.50
46900;DHT22;32647;49.382;7.078;2024-03-02T02:27:28;6.40;1.00
46900;DHT22;32647;49.382;7.078;2024-03-02T02:30:19;6.70;99.90
46900;DHT22;32647;49.382;7.078;2024-03-02T02:33:05;6.90;99.90
46900;DHT22;32647;49.382;7.078;2024-03-02T02:35:51;7.20;1.00
46900;DHT22;32647;49.382;7.078;2024-03-02T02:38:44;7.20;99.90
46900;DHT22;32647;49.382;7.078;2024-03-02T02:41:30;7.30;99.90
46900;DHT22;32647;49.382;7.078;2024-03-02T02:44:16;7.40;1.00
46900;DHT22;32647;49.382;7.078;2024-03-02T02:47:02;7.50;1.00
46900;DHT22;32647;49.382;7.078;2024-03-02T02:49:48;7.50;99.90
46900;DHT22;32647;49.382;7.078;2024-03-02T02:52:35;7.60;32.50
46900;DHT22;32647;49.382;7.078;2024-03-02T02:55:21;7.50;1.00
46900;DHT22;32647;49.382;7.078;2024-03-02T02:58:07;7.60;1.00
46900;DHT22;32647;49.382;7.078;2024-03-02T03:00:53;7.60;99.90
46900;DHT22;32647;49.382;7.078;2024-03-02T03:03:42;7.70;99.90
46900;DHT22;32647;49.382;7.078;2024-03-02T03:06:28;7.70;99.90
46900;DHT22;32647;49.382;7.078;2024-03-02T03:09:14;7.90;99.90
46900;DHT22;32647;49.382;7.078;2024-03-02T03:12:00;7.90;19.30
46900;DHT22;32647;49.382;7.078;2024-03-02T03:14:46;8.00;13.20
46900;DHT22;32647;49.382;7.078;2024-03-02T03:17:32;8.00;14.30
46900;DHT22;32647;49.382;7.078;2024-03-02T03:20:18;8.00;1.00
46900;DHT22;32647;49.382;7.078;2024-03-02T03:23:04;8.00;1.00
46900;DHT22;32647;49.382;7.078;2024-03-02T03:25:50;8.00;1.00
46900;DHT22;32647;49.382;7.078;2024-03-02T03:28:36;8.00;99.90
46900;DHT22;32647;49.382;7.078;2024-03-02T03:31:23;7.70;1.00
46900;DHT22;32647;49.382;7.078;2024-03-02T03:34:08;7.30;99.90
46900;DHT22;32647;49.382;7.078;2024-03-02T03:36:55;7.10;99.90
46900;DHT22;32647;49.382;7.078;2024-03-02T03:39:41;7.20;99.90
46900;DHT22;32647;49.382;7.078;2024-03-02T03:42:27;7.00;1.00
46900;DHT22;32647;49.382;7.078;2024-03-02T03:45:13;6.90;1.00
46900;DHT22;32647;49.382;7.078;2024-03-02T03:47:59;6.80;24.30
46900;DHT22;32647;49.382;7.078;2024-03-02T03:50:45;6.60;65.30
46900;DHT22;32647;49.382;7.078;2024-03-02T03:53:31;6.50;45.20
46900;DHT22;32647;49.382;7.078;2024-03-02T03:56:17;6.50;64.70
46900;DHT22;32647;49.382;7.078;2024-03-02T03:59:03;6.50;95.70
46900;DHT22;32647;49.382;7.078;2024-03-02T04:01:50;6.50;70.50
46900;DHT22;32647;49.382;7.078;2024-03-02T04:04:36;6.50;90.90
46900;DHT22;32647;49.382;7.078;2024-03-02T04:07:22;6.50;77.00
46900;DHT22;32647;49.382;7.078;2024-03-02T04:10:09;6.60;36.20
46900;DHT22;32647;49.382;7.078;2024-03-02T04:12:55;6.60;61.10
46900;DHT22;32647;49.382;7.078;2024-03-02T04:15:41;6.60;7.70
46900;DHT22;32647;49.382;7.078;2024-03-02T04:18:27;6.60;38.50
46900;DHT22;32647;49.382;7.078;2024-03-02T04:21:13;6.50;41.10
46900;DHT22;32647;49.382;7.078;2024-03-02T04:23:59;6.50;37.20
46900;DHT22;32647;49.382;7.078;2024-03-02T04:26:45;6.50;60.00
46900;DHT22;32647;49.382;7.078;2024-03-02T04:29:31;6.50;91.20
46900;DHT22;32647;49.382;7.078;2024-03-02T04:32:17;6.30;99.90
46900;DHT22;32647;49.382;7.078;2024-03-02T04:35:03;6.40;99.90
46900;DHT22;32647;49.382;7.078;2024-03-02T04:37:49;6.40;95.10
46900;DHT22;32647;49.382;7.078;2024-03-02T04:40:35;6.30;99.90
46900;DHT22;32647;49.382;7.078;2024-03-02T04:43:21;6.40;96.10
46900;DHT22;32647;49.382;7.078;2024-03-02T04:46:07;6.40;99.90
46900;DHT22;32647;49.382;7.078;2024-03-02T04:48:53;6.50;90.00
46900;DHT22;32647;49.382;7.078;2024-03-02T04:51:42;6.50;99.50
46900;DHT22;32647;49.382;7.078;2024-03-02T04:54:28;6.40;90.30
46900;DHT22;32647;49.382;7.078;2024-03-02T04:57:14;6.70;1.00
46900;DHT22;32647;49.382;7.078;2024-03-02T05:00:00;7.10;96.80
46900;DHT22;32647;49.382;7.078;2024-03-02T05:02:47;7.30;99.90
46900;DHT22;32647;49.382;7.078;2024-03-02T05:05:32;7.40;1.00
46900;DHT22;32647;49.382;7.078;2024-03-02T05:08:18;7.50;99.90
46900;DHT22;32647;49.382;7.078;2024-03-02T05:11:04;7.50;52.00
46900;DHT22;32647;49.382;7.078;2024-03-02T05:14:09;7.50;99.90
46900;DHT22;32647;49.382;7.078;2024-03-02T05:16:55;7.50;9.70
46900;DHT22;32647;49.382;7.078;2024-03-02T05:19:41;7.50;17.10
46900;DHT22;32647;49.382;7.078;2024-03-02T05:22:27;7.60;99.90
46900;DHT22;32647;49.382;7.078;2024-03-02T05:25:13;7.60;99.90
46900;DHT22;32647;49.382;7.078;2024-03-02T05:27:59;7.60;99.90
46900;DHT22;32647;49.382;7.078;2024-03-02T05:30:45;7.60;99.90
46900;DHT22;32647;49.382;7.078;2024-03-02T05:33:30;7.60;1.00
46900;DHT22;32647;49.382;7.078;2024-03-02T05:36:18;7.60;14.40
46900;DHT22;32647;49.382;7.078;2024-03-02T05:39:05;7.50;1.00
46900;DHT22;32647;49.382;7.078;2024-03-02T05:41:54;7.50;99.90
46900;DHT22;32647;49.382;7.078;2024-03-02T05:44:40;7.40;8.70
46900;DHT22;32647;49.382;7.078;2024-03-02T05:47:26;7.30;99.90
46900;DHT22;32647;49.382;7.078;2024-03-02T05:50:13;7.30;99.90
46900;DHT22;32647;49.382;7.078;2024-03-02T05:52:59;7.20;99.90
46900;DHT22;32647;49.382;7.078;2024-03-02T05:55:45;7.30;99.90
46900;DHT22;32647;49.382;7.078;2024-03-02T05:58:31;7.30;99.90
46900;DHT22;32647;49.382;7.078;2024-03-02T06:01:36;7.40;99.90
46900;DHT22;32647;49.382;7.078;2024-03-02T06:04:22;7.40;99.90
46900;DHT22;32647;49.382;7.078;2024-03-02T06:07:07;7.30;99.90
46900;DHT22;32647;49.382;7.078;2024-03-02T06:09:53;7.30;99.90
46900;DHT22;32647;49.382;7.078;2024-03-02T06:12:40;7.40;35.40
46900;DHT22;32647;49.382;7.078;2024-03-02T06:15:26;7.40;99.90
46900;DHT22;32647;49.382;7.078;2024-03-02T06:18:12;7.40;99.90
46900;DHT22;32647;49.382;7.078;2024-03-02T06:20:58;7.40;99.90
46900;DHT22;32647;49.382;7.078;2024-03-02T06:23:44;7.40;99.90
46900;DHT22;32647;49.382;7.078;2024-03-02T06:26:30;7.40;99.90
46900;DHT22;32647;49.382;7.078;2024-03-02T06:29:17;7.40;99.90
46900;DHT22;32647;49.382;7.078;2024-03-02T06:32:03;7.30;99.90
46900;DHT22;32647;49.382;7.078;2024-03-02T06:34:49;7.40;99.90
46900;DHT22;32647;49.382;7.078;2024-03-02T06:37:36;7.40;99.90
46900;DHT22;32647;49.382;7.078;2024-03-02T06:40:22;7.30;99.90
46900;DHT22;32647;49.382;7.078;2024-03-02T06:43:08;7.30;99.90
46900;DHT22;32647;49.382;7.078;2024-03-02T06:45:54;7.30;99.90
46900;DHT22;32647;49.382;7.078;2024-03-02T06:48:40;7.30;99.90
46900;DHT22;32647;49.382;7.078;2024-03-02T06:51:26;7.30;99.90
46900;DHT22;32647;49.382;7.078;2024-03-02T06:54:12;7.30;1.00
46900;DHT22;32647;49.382;7.078;2024-03-02T06:56:58;7.30;1.00
46900;DHT22;32647;49.382;7.078;2024-03-02T06:59:44;7.20;18.80
46900;DHT22;32647;49.382;7.078;2024-03-02T07:02:30;7.10;77.70
46900;DHT22;32647;49.382;7.078;2024-03-02T07:05:16;7.00;75.70
46900;DHT22;32647;49.382;7.078;2024-03-02T07:08:02;6.90;99.90
46900;DHT22;32647;49.382;7.078;2024-03-02T07:10:49;6.90;99.90
46900;DHT22;32647;49.382;7.078;2024-03-02T07:13:35;6.90;99.90
46900;DHT22;32647;49.382;7.078;2024-03-02T07:16:21;6.90;99.90
46900;DHT22;32647;49.382;7.078;2024-03-02T07:19:18;7.00;99.90
46900;DHT22;32647;49.382;7.078;2024-03-02T07:22:06;7.00;99.90
46900;DHT22;32647;49.382;7.078;2024-03-02T07:24:53;7.00;95.10
46900;DHT22;32647;49.382;7.078;2024-03-02T07:27:39;7.00;99.90
46900;DHT22;32647;49.382;7.078;2024-03-02T07:30:25;7.00;99.90
46900;DHT22;32647;49.382;7.078;2024-03-02T07:33:11;7.00;99.90
46900;DHT22;32647;49.382;7.078;2024-03-02T07:35:58;7.00;99.90
46900;DHT22;32647;49.382;7.078;2024-03-02T07:38:48;6.90;99.90
46900;DHT22;32647;49.382;7.078;2024-03-02T07:41:36;6.90;99.90
46900;DHT22;32647;49.382;7.078;2024-03-02T07:44:22;6.90;99.90
46900;DHT22;32647;49.382;7.078;2024-03-02T07:47:08;7.10;99.90
46900;DHT22;32647;49.382;7.078;2024-03-02T07:49:54;7.20;99.90
46900;DHT22;32647;49.382;7.078;2024-03-02T07:52:40;7.30;99.90
46900;DHT22;32647;49.382;7.078;2024-03-02T07:55:26;7.50;99.90
46900;DHT22;32647;49.382;7.078;2024-03-02T07:58:12;7.50;99.90
46900;DHT22;32647;49.382;7.078;2024-03-02T08:00:58;7.60;99.90
46900;DHT22;32647;49.382;7.078;2024-03-02T08:03:46;7.50;99.90
46900;DHT22;32647;49.382;7.078;2024-03-02T08:06:36;7.40;99.90
46900;DHT22;32647;49.382;7.078;2024-03-02T08:09:22;7.50;99.90
46900;DHT22;32647;49.382;7.078;2024-03-02T08:12:08;7.50;99.90
46900;DHT22;32647;49.382;7.078;2024-03-02T08:14:54;7.40;99.90
46900;DHT22;32647;49.382;7.078;2024-03-02T08:17:40;7.40;99.90
46900;DHT22;32647;49.382;7.078;2024-03-02T08:20:34;7.40;99.90
46900;DHT22;32647;49.382;7.078;2024-03-02T08:23:20;7.40;99.90
46900;DHT22;32647;49.382;7.078;2024-03-02T08:26:06;7.40;99.90
46900;DHT22;32647;49.382;7.078;2024-03-02T08:28:52;7.40;99.90
46900;DHT22;32647;49.382;7.078;2024-03-02T08:31:38;7.50;99.90
46900;DHT22;32647;49.382;7.078;2024-03-02T08:34:24;7.40;99.90
46900;DHT22;32647;49.382;7.078;2024-03-02T08:37:10;7.40;99.90
46900;DHT22;32647;49.382;7.078;2024-03-02T08:39:56;7.40;99.90
46900;DHT22;32647;49.382;7.078;2024-03-02T08:42:42;7.40;99.90
46900;DHT22;32647;49.382;7.078;2024-03-02T08:45:28;7.40;99.90
46900;DHT22;32647;49.382;7.078;2024-03-02T08:48:14;7.50;99.90
46900;DHT22;32647;49.382;7.078;2024-03-02T08:51:00;7.60;99.90
46900;DHT22;32647;49.382;7.078;2024-03-02T08:53:46;7.70;99.90
46900;DHT22;32647;49.382;7.078;2024-03-02T08:56:32;7.90;99.90
46900;DHT22;32647;49.382;7.078;2024-03-02T08:59:18;8.00;99.90
46900;DHT22;32647;49.382;7.078;2024-03-02T09:02:04;8.20;99.90
46900;DHT22;32647;49.382;7.078;2024-03-02T09:04:50;8.30;99.90
46900;DHT22;32647;49.382;7.078;2024-03-02T09:07:36;8.30;99.90
46900;DHT22;32647;49.382;7.078;2024-03-02T09:10:24;8.40;99.90
46900;DHT22;32647;49.382;7.078;2024-03-02T09:13:10;8.40;99.90
46900;DHT22;32647;49.382;7.078;2024-03-02T09:15:56;8.40;78.30
46900;DHT22;32647;49.382;7.078;2024-03-02T09:18:42;8.50;76.30
46900;DHT22;32647;49.382;7.078;2024-03-02T09:21:28;8.60;95.60
46900;DHT22;32647;49.382;7.078;2024-03-02T09:24:16;8.70;47.50
46900;DHT22;32647;49.382;7.078;2024-03-02T09:27:02;8.80;1.00
46900;DHT22;32647;49.382;7.078;2024-03-02T09:29:48;8.90;2.00
46900;DHT22;32647;49.382;7.078;2024-03-02T09:32:34;9.10;1.00
46900;DHT22;32647;49.382;7.078;2024-03-02T09:35:20;9.20;99.90
46900;DHT22;32647;49.382;7.078;2024-03-02T09:38:06;9.40;1.00
46900;DHT22;32647;49.382;7.078;2024-03-02T09:40:52;9.40;99.90
46900;DHT22;32647;49.382;7.078;2024-03-02T09:43:38;9.60;99.90
46900;DHT22;32647;49.382;7.078;2024-03-02T09:46:24;9.70;99.90
46900;DHT22;32647;49.382;7.078;2024-03-02T09:49:13;9.60;1.00
46900;DHT22;32647;49.382;7.078;2024-03-02T09:51:59;9.90;96.50
46900;DHT22;32647;49.382;7.078;2024-03-02T09:54:47;9.80;99.90
46900;DHT22;32647;49.382;7.078;2024-03-02T09:57:33;9.80;72.80
46900;DHT22;32647;49.382;7.078;2024-03-02T10:00:19;9.70;99.90
46900;DHT22;32647;49.382;7.078;2024-03-02T10:03:05;9.60;99.90
46900;DHT22;32647;49.382;7.078;2024-03-02T10:06:23;9.60;99.90
46900;DHT22;32647;49.382;7.078;2024-03-02T10:09:09;9.90;99.90
46900;DHT22;32647;49.382;7.078;2024-03-02T10:12:06;10.00;99.90
46900;DHT22;32647;49.382;7.078;2024-03-02T10:15:03;10.10;99.90
46900;DHT22;32647;49.382;7.078;2024-03-02T10:17:50;10.30;1.30
46900;DHT22;32647;49.382;7.078;2024-03-02T10:20:36;10.20;99.90
46900;DHT22;32647;49.382;7.078;2024-03-02T10:23:22;10.20;1.00
46900;DHT22;32647;49.382;7.078;2024-03-02T10:26:17;10.30;99.90
46900;DHT22;32647;49.382;7.078;2024-03-02T10:29:08;10.50;99.90
46900;DHT22;32647;49.382;7.078;2024-03-02T10:31:54;10.70;1.00
46900;DHT22;32647;49.382;7.078;2024-03-02T10:34:41;10.70;39.20
46900;DHT22;32647;49.382;7.078;2024-03-02T10:37:28;10.80;1.00
46900;DHT22;32647;49.382;7.078;2024-03-02T10:40:14;11.00;99.90
46900;DHT22;32647;49.382;7.078;2024-03-02T10:43:01;11.40;99.90
46900;DHT22;32647;49.382;7.078;2024-03-02T10:45:49;11.60;99.90
46900;DHT22;32647;49.382;7.078;2024-03-02T10:48:37;11.70;99.90
46900;DHT22;32647;49.382;7.078;2024-03-02T10:51:29;11.50;99.90
46900;DHT22;32647;49.382;7.078;2024-03-02T10:54:17;11.70;41.60
46900;DHT22;32647;49.382;7.078;2024-03-02T10:57:04;12.30;1.00
46900;DHT22;32647;49.382;7.078;2024-03-02T11:00:01;12.50;99.90
46900;DHT22;32647;49.382;7.078;2024-03-02T11:02:51;12.30;99.90
46900;DHT22;32647;49.382;7.078;2024-03-02T11:05:44;12.70;99.90
46900;DHT22;32647;49.382;7.078;2024-03-02T11:08:30;13.00;99.90
46900;DHT22;32647;49.382;7.078;2024-03-02T11:11:22;12.70;99.90
46900;DHT22;32647;49.382;7.078;2024-03-02T11:14:14;12.60;99.90
46900;DHT22;32647;49.382;7.078;2024-03-02T11:17:03;12.50;99.90
46900;DHT22;32647;49.382;7.078;2024-03-02T11:19:49;12.60;99.90
46900;DHT22;32647;49.382;7.078;2024-03-02T11:22:36;12.60;99.90
46900;DHT22;32647;49.382;7.078;2024-03-02T11:25:24;12.40;99.90
46900;DHT22;32647;49.382;7.078;2024-03-02T11:28:10;12.30;99.90
46900;DHT22;32647;49.382;7.078;2024-03-02T11:30:56;12.30;99.90
46900;DHT22;32647;49.382;7.078;2024-03-02T11:33:42;12.10;99.90
46900;DHT22;32647;49.382;7.078;2024-03-02T11:36:28;12.10;99.90
46900;DHT22;32647;49.382;7.078;2024-03-02T11:39:14;12.40;99.90
46900;DHT22;32647;49.382;7.078;2024-03-02T11:42:01;12.90;99.90
46900;DHT22;32647;49.382;7.078;2024-03-02T11:44:48;13.10;99.90
46900;DHT22;32647;49.382;7.078;2024-03-02T11:47:35;13.30;99.90
46900;DHT22;32647;49.382;7.078;2024-03-02T11:50:34;13.70;99.90
46900;DHT22;32647;49.382;7.078;2024-03-02T11:53:24;13.50;75.70
46900;DHT22;32647;49.382;7.078;2024-03-02T11:56:11;13.40;99.90
46900;DHT22;32647;49.382;7.078;2024-03-02T11:58:58;13.30;99.90
46900;DHT22;32647;49.382;7.078;2024-03-02T12:01:44;13.20;99.90
46900;DHT22;32647;49.382;7.078;2024-03-02T12:04:32;13.50;99.90
46900;DHT22;32647;49.382;7.078;2024-03-02T12:07:22;13.50;73.40
46900;DHT22;32647;49.382;7.078;2024-03-02T12:10:09;13.30;39.60
46900;DHT22;32647;49.382;7.078;2024-03-02T12:12:59;13.30;99.90
46900;DHT22;32647;49.382;7.078;2024-03-02T12:15:45;13.20;99.90
46900;DHT22;32647;49.382;7.078;2024-03-02T12:18:31;13.20;99.90
46900;DHT22;32647;49.382;7.078;2024-03-02T12:21:17;13.40;99.90
46900;DHT22;32647;49.382;7.078;2024-03-02T12:24:04;13.40;99.90
46900;DHT22;32647;49.382;7.078;2024-03-02T12:26:50;13.30;99.90
46900;DHT22;32647;49.382;7.078;2024-03-02T12:29:37;13.50;99.90
46900;DHT22;32647;49.382;7.078;2024-03-02T12:32:24;13.50;98.10
46900;DHT22;32647;49.382;7.078;2024-03-02T12:35:14;13.50;64.70
46900;DHT22;32647;49.382;7.078;2024-03-02T12:38:02;13.40;99.90
46900;DHT22;32647;49.382;7.078;2024-03-02T12:40:48;13.30;99.90
46900;DHT22;32647;49.382;7.078;2024-03-02T12:43:35;13.20;99.90
46900;DHT22;32647;49.382;7.078;2024-03-02T12:46:21;13.20;99.90
46900;DHT22;32647;49.382;7.078;2024-03-02T12:49:14;13.10;99.90
46900;DHT22;32647;49.382;7.078;2024-03-02T12:52:04;13.00;99.90
46900;DHT22;32647;49.382;7.078;2024-03-02T12:54:50;12.90;99.90
46900;DHT22;32647;49.382;7.078;2024-03-02T12:57:36;12.60;99.90
46900;DHT22;32647;49.382;7.078;2024-03-02T13:00:22;12.70;99.90
46900;DHT22;32647;49.382;7.078;2024-03-02T13:03:08;12.80;99.90
46900;DHT22;32647;49.382;7.078;2024-03-02T13:05:54;12.70;99.90
46900;DHT22;32647;49.382;7.078;2024-03-02T13:08:40;12.60;99.90
46900;DHT22;32647;49.382;7.078;2024-03-02T13:11:26;12.50;99.90
46900;DHT22;32647;49.382;7.078;2024-03-02T13:14:12;12.40;99.90
46900;DHT22;32647;49.382;7.078;2024-03-02T13:16:58;12.30;99.90
46900;DHT22;32647;49.382;7.078;2024-03-02T13:19:58;12.10;99.90
46900;DHT22;32647;49.382;7.078;2024-03-02T13:22:45;12.10;99.90
46900;DHT22;32647;49.382;7.078;2024-03-02T13:25:31;12.20;99.90
46900;DHT22;32647;49.382;7.078;2024-03-02T13:28:17;11.90;1.00
46900;DHT22;32647;49.382;7.078;2024-03-02T13:31:03;11.80;99.90
46900;DHT22;32647;49.382;7.078;2024-03-02T13:33:49;11.80;99.90
46900;DHT22;32647;49.382;7.078;2024-03-02T13:36:35;11.80;99.90
46900;DHT22;32647;49.382;7.078;2024-03-02T13:39:21;12.00;99.90
46900;DHT22;32647;49.382;7.078;2024-03-02T13:42:08;12.10;99.90
46900;DHT22;32647;49.382;7.078;2024-03-02T13:44:54;12.20;99.90
46900;DHT22;32647;49.382;7.078;2024-03-02T13:47:41;12.20;99.90
46900;DHT22;32647;49.382;7.078;2024-03-02T13:50:26;12.20;99.90
46900;DHT22;32647;49.382;7.078;2024-03-02T13:53:12;12.10;99.90
46900;DHT22;32647;49.382;7.078;2024-03-02T13:55:58;11.90;99.90
46900;DHT22;32647;49.382;7.078;2024-03-02T13:58:44;11.90;99.90
46900;DHT22;32647;49.382;7.078;2024-03-02T14:01:32;12.00;99.90
46900;DHT22;32647;49.382;7.078;2024-03-02T14:04:18;12.00;99.90
46900;DHT22;32647;49.382;7.078;2024-03-02T14:07:05;12.10;99.90
46900;DHT22;32647;49.382;7.078;2024-03-02T14:09:54;12.20;99.90
46900;DHT22;32647;49.382;7.078;2024-03-02T14:12:40;12.10;99.90
46900;DHT22;32647;49.382;7.078;2024-03-02T14:15:26;12.20;99.90
46900;DHT22;32647;49.382;7.078;2024-03-02T14:18:12;12.30;99.90
46900;DHT22;32647;49.382;7.078;2024-03-02T14:20:58;12.50;99.90
46900;DHT22;32647;49.382;7.078;2024-03-02T14:23:44;13.00;99.90
46900;DHT22;32647;49.382;7.078;2024-03-02T14:26:30;13.30;99.90
46900;DHT22;32647;49.382;7.078;2024-03-02T14:29:16;13.60;71.50
46900;DHT22;32647;49.382;7.078;2024-03-02T14:32:02;13.80;99.90
46900;DHT22;32647;49.382;7.078;2024-03-02T14:34:48;13.70;96.10
46900;DHT22;32647;49.382;7.078;2024-03-02T14:37:34;13.60;63.10
46900;DHT22;32647;49.382;7.078;2024-03-02T14:40:20;13.60;45.70
46900;DHT22;32647;49.382;7.078;2024-03-02T14:43:07;13.40;66.80
46900;DHT22;32647;49.382;7.078;2024-03-02T14:45:53;13.40;31.70
46900;DHT22;32647;49.382;7.078;2024-03-02T14:48:39;13.40;50.50
46900;DHT22;32647;49.382;7.078;2024-03-02T14:51:25;13.40;33.60
46900;DHT22;32647;49.382;7.078;2024-03-02T14:54:11;13.40;96.20
46900;DHT22;32647;49.382;7.078;2024-03-02T14:56:57;13.30;76.40
46900;DHT22;32647;49.382;7.078;2024-03-02T14:59:43;13.20;99.90
46900;DHT22;32647;49.382;7.078;2024-03-02T15:02:29;13.00;67.80
46900;DHT22;32647;49.382;7.078;2024-03-02T15:05:15;12.80;99.90
46900;DHT22;32647;49.382;7.078;2024-03-02T15:08:01;12.90;95.40
46900;DHT22;32647;49.382;7.078;2024-03-02T15:10:50;12.70;98.50
46900;DHT22;32647;49.382;7.078;2024-03-02T15:13:36;12.70;99.90
46900;DHT22;32647;49.382;7.078;2024-03-02T15:16:22;12.60;99.90
46900;DHT22;32647;49.382;7.078;2024-03-02T15:19:08;12.60;99.90
46900;DHT22;32647;49.382;7.078;2024-03-02T15:21:57;12.70;99.90
46900;DHT22;32647;49.382;7.078;2024-03-02T15:24:43;12.90;99.90
46900;DHT22;32647;49.382;7.078;2024-03-02T15:27:29;12.90;94.80
46900;DHT22;32647;49.382;7.078;2024-03-02T15:30:15;12.90;99.90
46900;DHT22;32647;49.382;7.078;2024-03-02T15:33:02;12.80;99.90
46900;DHT22;32647;49.382;7.078;2024-03-02T15:35:49;12.70;99.90
46900;DHT22;32647;49.382;7.078;2024-03-02T15:38:35;12.70;98.10
46900;DHT22;32647;49.382;7.078;2024-03-02T15:41:22;12.80;99.90
46900;DHT22;32647;49.382;7.078;2024-03-02T15:44:08;12.50;99.90
46900;DHT22;32647;49.382;7.078;2024-03-02T15:46:55;12.50;99.90
46900;DHT22;32647;49.382;7.078;2024-03-02T15:49:41;12.50;99.90
46900;DHT22;32647;49.382;7.078;2024-03-02T15:52:27;12.40;99.90
46900;DHT22;32647;49.382;7.078;2024-03-02T15:55:13;12.40;99.90
46900;DHT22;32647;49.382;7.078;2024-03-02T15:57:59;12.40;99.90
46900;DHT22;32647;49.382;7.078;2024-03-02T16:00:45;12.30;99.90
46900;DHT22;32647;49.382;7.078;2024-03-02T16:03:31;12.30;99.90
46900;DHT22;32647;49.382;7.078;2024-03-02T16:06:18;12.20;99.90
46900;DHT22;32647;49.382;7.078;2024-03-02T16:09:04;12.30;99.90
46900;DHT22;32647;49.382;7.078;2024-03-02T16:11:50;12.20;99.90
46900;DHT22;32647;49.382;7.078;2024-03-02T16:14:36;12.40;99.90
46900;DHT22;32647;49.382;7.078;2024-03-02T16:17:22;12.30;99.90
46900;DHT22;32647;49.382;7.078;2024-03-02T16:20:08;12.20;99.90
46900;DHT22;32647;49.382;7.078;2024-03-02T16:22:55;12.30;99.90
46900;DHT22;32647;49.382;7.078;2024-03-02T16:25:41;12.30;99.90
46900;DHT22;32647;49.382;7.078;2024-03-02T16:28:27;12.30;99.90
46900;DHT22;32647;49.382;7.078;2024-03-02T16:31:13;12.10;99.90
46900;DHT22;32647;49.382;7.078;2024-03-02T16:34:01;11.90;1.00
46900;DHT22;32647;49.382;7.078;2024-03-02T16:36:47;11.90;99.90
46900;DHT22;32647;49.382;7.078;2024-03-02T16:39:33;11.50;99.90
46900;DHT22;32647;49.382;7.078;2024-03-02T16:42:19;11.70;99.90
46900;DHT22;32647;49.382;7.078;2024-03-02T16:45:09;11.70;99.90
46900;DHT22;32647;49.382;7.078;2024-03-02T16:47:55;11.60;1.00
46900;DHT22;32647;49.382;7.078;2024-03-02T16:50:41;11.70;99.90
46900;DHT22;32647;49.382;7.078;2024-03-02T16:53:27;11.70;99.90
46900;DHT22;32647;49.382;7.078;2024-03-02T16:56:13;11.50;99.90
46900;DHT22;32647;49.382;7.078;2024-03-02T16:58:59;11.50;99.90
46900;DHT22;32647;49.382;7.078;2024-03-02T17:01:45;11.30;99.90
46900;DHT22;32647;49.382;7.078;2024-03-02T17:04:31;11.20;99.90
46900;DHT22;32647;49.382;7.078;2024-03-02T17:07:19;11.00;1.00
46900;DHT22;32647;49.382;7.078;2024-03-02T17:10:05;10.90;99.90
46900;DHT22;32647;49.382;7.078;2024-03-02T17:12:51;10.80;99.90
46900;DHT22;32647;49.382;7.078;2024-03-02T17:15:39;10.70;1.00
46900;DHT22;32647;49.382;7.078;2024-03-02T17:18:25;10.50;99.90
46900;DHT22;32647;49.382;7.078;2024-03-02T17:21:11;10.40;1.00
46900;DHT22;32647;49.382;7.078;2024-03-02T17:23:57;10.30;99.90
46900;DHT22;32647;49.382;7.078;2024-03-02T17:26:43;10.30;99.90
46900;DHT22;32647;49.382;7.078;2024-03-02T17:29:29;10.20;22.50
46900;DHT22;32647;49.382;7.078;2024-03-02T17:32:17;10.20;99.90
46900;DHT22;32647;49.382;7.078;2024-03-02T17:35:04;10.20;99.90
46900;DHT22;32647;49.382;7.078;2024-03-02T17:37:50;10.10;99.90
46900;DHT22;32647;49.382;7.078;2024-03-02T17:40:37;10.10;1.00
46900;DHT22;32647;49.382;7.078;2024-03-02T17:43:23;10.10;1.00
46900;DHT22;32647;49.382;7.078;2024-03-02T17:46:09;10.10;99.90
46900;DHT22;32647;49.382;7.078;2024-03-02T17:48:55;10.10;99.90